sensor_id;sensor_type;location;lat;lon;timestamp;temperature;humidity
21214;DHT22;10764;50.850;2.904;2022-11-15T00:04:16;18.70;54.50
21214;DHT22;10764;50.850;2.904;2022-11-15T00:15:19;18.70;54.60
21214;DHT22;10764;50.850;2.904;2022-11-15T00:18:11;18.70;54.70
21214;DHT22;10764;50.850;2.904;2022-11-15T00:32:06;18.60;54.70
21214;DHT22;10764;50.850;2.904;2022-11-15T00:45:55;18.70;54.90
21214;DHT22;10764;50.850;2.904;2022-11-15T00:48:40;18.70;54.90
21214;DHT22;10764;50.850;2.904;2022-11-15T00:51:26;18.70;54.90
21214;DHT22;10764;50.850;2.904;2022-11-15T00:56:57;18.70;54.90
21214;DHT22;10764;50.850;2.904;2022-11-15T01:02:28;18.70;55.00
21214;DHT22;10764;50.850;2.904;2022-11-15T01:05:14;18.70;55.10
21214;DHT22;10764;50.850;2.904;2022-11-15T01:13:33;18.70;55.10
21214;DHT22;10764;50.850;2.904;2022-11-15T01:32:55;18.70;55.20
21214;DHT22;10764;50.850;2.904;2022-11-15T01:35:40;18.70;55.30
21214;DHT22;10764;50.850;2.904;2022-11-15T01:38:26;18.60;55.30
21214;DHT22;10764;50.850;2.904;2022-11-15T01:41:19;18.70;55.40
21214;DHT22;10764;50.850;2.904;2022-11-15T01:47:31;18.70;55.50
21214;DHT22;10764;50.850;2.904;2022-11-15T01:50:20;18.70;55.50
21214;DHT22;10764;50.850;2.904;2022-11-15T01:58:40;18.70;55.80
21214;DHT22;10764;50.850;2.904;2022-11-15T02:04:16;18.70;55.60
21214;DHT22;10764;50.850;2.904;2022-11-15T02:07:06;18.70;55.80
21214;DHT22;10764;50.850;2.904;2022-11-15T02:12:39;18.70;55.90
21214;DHT22;10764;50.850;2.904;2022-11-15T02:15:29;18.70;55.60
21214;DHT22;10764;50.850;2.904;2022-11-15T02:18:28;18.70;55.60
21214;DHT22;10764;50.850;2.904;2022-11-15T02:24:43;18.70;55.60
21214;DHT22;10764;50.850;2.904;2022-11-15T02:31:10;18.70;55.60
21214;DHT22;10764;50.850;2.904;2022-11-15T02:34:22;18.70;55.60
21214;DHT22;10764;50.850;2.904;2022-11-15T02:43:12;18.70;55.80
21214;DHT22;10764;50.850;2.904;2022-11-15T02:46:40;18.70;55.80
21214;DHT22;10764;50.850;2.904;2022-11-15T02:49:49;18.70;55.80
21214;DHT22;10764;50.850;2.904;2022-11-15T02:52:35;18.70;55.80
21214;DHT22;10764;50.850;2.904;2022-11-15T03:07:30;18.70;55.70
21214;DHT22;10764;50.850;2.904;2022-11-15T03:10:24;18.70;55.70
21214;DHT22;10764;50.850;2.904;2022-11-15T03:17:01;18.70;55.70
21214;DHT22;10764;50.850;2.904;2022-11-15T03:22:41;18.70;55.70
21214;DHT22;10764;50.850;2.904;2022-11-15T03:25:28;18.70;55.70
21214;DHT22;10764;50.850;2.904;2022-11-15T03:28:25;18.70;55.70
21214;DHT22;10764;50.850;2.904;2022-11-15T03:31:14;18.70;55.70
21214;DHT22;10764;50.850;2.904;2022-11-15T03:34:41;18.70;55.60
21214;DHT22;10764;50.850;2.904;2022-11-15T03:40:58;18.70;55.60
21214;DHT22;10764;50.850;2.904;2022-11-15T03:44:04;18.70;55.60
21214;DHT22;10764;50.850;2.904;2022-11-15T03:49:53;18.70;55.60
21214;DHT22;10764;50.850;2.904;2022-11-15T03:55:28;18.70;55.60
21214;DHT22;10764;50.850;2.904;2022-11-15T04:03:45;18.70;55.60
21214;DHT22;10764;50.850;2.904;2022-11-15T04:09:16;18.70;55.50
21214;DHT22;10764;50.850;2.904;2022-11-15T04:12:02;18.70;55.50
21214;DHT22;10764;50.850;2.904;2022-11-15T04:17:54;18.70;55.50
21214;DHT22;10764;50.850;2.904;2022-11-15T04:32:21;18.70;55.40
21214;DHT22;10764;50.850;2.904;2022-11-15T04:35:07;18.70;55.40
21214;DHT22;10764;50.850;2.904;2022-11-15T04:37:53;18.70;55.30
21214;DHT22;10764;50.850;2.904;2022-11-15T04:40:38;18.70;55.30
21214;DHT22;10764;50.850;2.904;2022-11-15T04:46:11;18.70;55.20
21214;DHT22;10764;50.850;2.904;2022-11-15T04:54:29;18.60;55.10
21214;DHT22;10764;50.850;2.904;2022-11-15T04:57:15;18.70;55.10
21214;DHT22;10764;50.850;2.904;2022-11-15T05:00:01;18.70;55.10
21214;DHT22;10764;50.850;2.904;2022-11-15T05:02:47;18.60;55.00
21214;DHT22;10764;50.850;2.904;2022-11-15T05:05:50;18.70;55.00
21214;DHT22;10764;50.850;2.904;2022-11-15T05:08:36;18.60;54.90
21214;DHT22;10764;50.850;2.904;2022-11-15T05:11:22;18.60;54.90
21214;DHT22;10764;50.850;2.904;2022-11-15T05:14:08;18.70;54.90
21214;DHT22;10764;50.850;2.904;2022-11-15T05:19:39;18.60;54.80
21214;DHT22;10764;50.850;2.904;2022-11-15T05:22:25;18.70;54.90
21214;DHT22;10764;50.850;2.904;2022-11-15T05:25:11;18.70;54.90
21214;DHT22;10764;50.850;2.904;2022-11-15T05:30:43;18.60;54.80
21214;DHT22;10764;50.850;2.904;2022-11-15T05:33:29;18.60;54.80
21214;DHT22;10764;50.850;2.904;2022-11-15T05:36:29;18.70;54.80
21214;DHT22;10764;50.850;2.904;2022-11-15T05:42:13;18.70;54.70
21214;DHT22;10764;50.850;2.904;2022-11-15T05:44:59;18.70;54.70
21214;DHT22;10764;50.850;2.904;2022-11-15T05:47:48;18.60;54.70
21214;DHT22;10764;50.850;2.904;2022-11-15T05:50:36;18.70;54.70
21214;DHT22;10764;50.850;2.904;2022-11-15T05:53:25;18.60;54.60
21214;DHT22;10764;50.850;2.904;2022-11-15T05:56:11;18.60;54.60
21214;DHT22;10764;50.850;2.904;2022-11-15T05:58:57;18.60;54.60
21214;DHT22;10764;50.850;2.904;2022-11-15T06:01:44;18.60;54.60
21214;DHT22;10764;50.850;2.904;2022-11-15T06:04:30;18.60;54.60
21214;DHT22;10764;50.850;2.904;2022-11-15T06:07:16;18.70;54.60
21214;DHT22;10764;50.850;2.904;2022-11-15T06:10:01;18.60;54.50
21214;DHT22;10764;50.850;2.904;2022-11-15T06:12:47;18.60;54.50
21214;DHT22;10764;50.850;2.904;2022-11-15T06:15:33;18.60;54.50
21214;DHT22;10764;50.850;2.904;2022-11-15T06:18:21;18.60;54.50
21214;DHT22;10764;50.850;2.904;2022-11-15T06:23:53;18.60;54.50
21214;DHT22;10764;50.850;2.904;2022-11-15T06:26:38;18.60;54.50
21214;DHT22;10764;50.850;2.904;2022-11-15T06:29:24;18.60;54.40
21214;DHT22;10764;50.850;2.904;2022-11-15T06:32:09;18.60;54.40
21214;DHT22;10764;50.850;2.904;2022-11-15T06:34:55;18.60;54.40
21214;DHT22;10764;50.850;2.904;2022-11-15T06:37:41;18.60;54.40
21214;DHT22;10764;50.850;2.904;2022-11-15T06:43:12;18.60;54.40
21214;DHT22;10764;50.850;2.904;2022-11-15T06:46:02;18.60;54.40
21214;DHT22;10764;50.850;2.904;2022-11-15T06:48:50;18.60;54.30
21214;DHT22;10764;50.850;2.904;2022-11-15T06:51:36;18.60;54.30
21214;DHT22;10764;50.850;2.904;2022-11-15T06:57:09;18.60;54.30
21214;DHT22;10764;50.850;2.904;2022-11-15T07:02:40;18.60;54.30
21214;DHT22;10764;50.850;2.904;2022-11-15T07:08:12;18.60;54.30
21214;DHT22;10764;50.850;2.904;2022-11-15T07:10:59;18.60;54.30
21214;DHT22;10764;50.850;2.904;2022-11-15T07:13:45;18.60;54.30
21214;DHT22;10764;50.850;2.904;2022-11-15T07:16:31;18.60;54.30
21214;DHT22;10764;50.850;2.904;2022-11-15T07:19:16;18.60;54.20
21214;DHT22;10764;50.850;2.904;2022-11-15T07:24:47;18.60;54.30
21214;DHT22;10764;50.850;2.904;2022-11-15T07:27:33;18.60;54.30
21214;DHT22;10764;50.850;2.904;2022-11-15T07:30:19;21.60;55.90
21214;DHT22;10764;50.850;2.904;2022-11-15T07:35:50;18.70;54.30
21214;DHT22;10764;50.850;2.904;2022-11-15T07:38:36;18.60;54.20
21214;DHT22;10764;50.850;2.904;2022-11-15T07:41:27;18.60;54.30
21214;DHT22;10764;50.850;2.904;2022-11-15T07:44:12;18.60;54.30
21214;DHT22;10764;50.850;2.904;2022-11-15T07:46:58;18.70;54.30
21214;DHT22;10764;50.850;2.904;2022-11-15T07:49:43;18.70;54.40
21214;DHT22;10764;50.850;2.904;2022-11-15T07:52:29;19.60;55.50
21214;DHT22;10764;50.850;2.904;2022-11-15T07:55:14;18.60;54.30
21214;DHT22;10764;50.850;2.904;2022-11-15T07:58:01;18.70;54.30
21214;DHT22;10764;50.850;2.904;2022-11-15T08:00:47;18.70;54.30
21214;DHT22;10764;50.850;2.904;2022-11-15T08:03:33;19.60;55.40
21214;DHT22;10764;50.850;2.904;2022-11-15T08:06:19;17.90;54.50
21214;DHT22;10764;50.850;2.904;2022-11-15T08:09:04;18.80;54.90
21214;DHT22;10764;50.850;2.904;2022-11-15T08:11:49;21.70;56.30
21214;DHT22;10764;50.850;2.904;2022-11-15T08:14:36;19.60;55.40
21214;DHT22;10764;50.850;2.904;2022-11-15T08:17:23;19.20;55.20
21214;DHT22;10764;50.850;2.904;2022-11-15T08:20:08;18.80;54.90
21214;DHT22;10764;50.850;2.904;2022-11-15T08:22:59;18.80;54.40
21214;DHT22;10764;50.850;2.904;2022-11-15T08:25:44;18.80;55.30
21214;DHT22;10764;50.850;2.904;2022-11-15T08:28:31;19.40;56.00
21214;DHT22;10764;50.850;2.904;2022-11-15T08:31:18;20.50;56.80
21214;DHT22;10764;50.850;2.904;2022-11-15T08:34:05;19.80;56.80
21214;DHT22;10764;50.850;2.904;2022-11-15T08:36:51;21.00;57.70
21214;DHT22;10764;50.850;2.904;2022-11-15T08:39:36;18.90;56.20
21214;DHT22;10764;50.850;2.904;2022-11-15T08:42:23;21.70;58.90
21214;DHT22;10764;50.850;2.904;2022-11-15T08:45:09;18.90;57.10
21214;DHT22;10764;50.850;2.904;2022-11-15T08:47:55;19.10;56.90
21214;DHT22;10764;50.850;2.904;2022-11-15T08:53:28;19.50;55.10
21214;DHT22;10764;50.850;2.904;2022-11-15T08:56:14;20.20;55.80
21214;DHT22;10764;50.850;2.904;2022-11-15T08:59:01;19.90;55.30
21214;DHT22;10764;50.850;2.904;2022-11-15T09:01:48;19.70;55.10
21214;DHT22;10764;50.850;2.904;2022-11-15T09:04:33;19.10;55.30
21214;DHT22;10764;50.850;2.904;2022-11-15T09:07:20;19.60;54.70
21214;DHT22;10764;50.850;2.904;2022-11-15T09:10:05;19.70;54.00
21214;DHT22;10764;50.850;2.904;2022-11-15T09:12:51;19.60;54.80
21214;DHT22;10764;50.850;2.904;2022-11-15T09:15:36;19.60;53.90
21214;DHT22;10764;50.850;2.904;2022-11-15T09:21:09;19.60;53.90
21214;DHT22;10764;50.850;2.904;2022-11-15T09:23:55;23.20;56.40
21214;DHT22;10764;50.850;2.904;2022-11-15T09:29:27;19.50;53.90
21214;DHT22;10764;50.850;2.904;2022-11-15T09:32:12;21.90;55.90
21214;DHT22;10764;50.850;2.904;2022-11-15T09:34:58;22.50;56.20
21214;DHT22;10764;50.850;2.904;2022-11-15T09:37:43;21.70;55.90
21214;DHT22;10764;50.850;2.904;2022-11-15T09:40:30;19.30;54.60
21214;DHT22;10764;50.850;2.904;2022-11-15T09:46:42;19.50;54.60
21214;DHT22;10764;50.850;2.904;2022-11-15T09:49:33;19.50;54.60
21214;DHT22;10764;50.850;2.904;2022-11-15T09:52:15;19.50;54.80
21214;DHT22;10764;50.850;2.904;2022-11-15T09:54:48;20.40;55.10
21214;DHT22;10764;50.850;2.904;2022-11-15T09:57:41;19.40;54.60
21214;DHT22;10764;50.850;2.904;2022-11-15T10:00:25;19.40;54.60
21214;DHT22;10764;50.850;2.904;2022-11-15T10:03:27;19.50;54.70
21214;DHT22;10764;50.850;2.904;2022-11-15T10:05:59;19.30;54.50
21214;DHT22;10764;50.850;2.904;2022-11-15T10:08:46;19.80;54.90
21214;DHT22;10764;50.850;2.904;2022-11-15T10:11:23;19.40;54.00
21214;DHT22;10764;50.850;2.904;2022-11-15T10:14:17;19.40;54.00
21214;DHT22;10764;50.850;2.904;2022-11-15T10:19:39;19.40;54.00
21214;DHT22;10764;50.850;2.904;2022-11-15T10:27:41;19.30;54.60
21214;DHT22;10764;50.850;2.904;2022-11-15T10:30:15;20.10;55.00
21214;DHT22;10764;50.850;2.904;2022-11-15T10:32:45;19.40;54.70
21214;DHT22;10764;50.850;2.904;2022-11-15T10:35:24;20.60;55.30
21214;DHT22;10764;50.850;2.904;2022-11-15T10:37:51;19.40;54.70
21214;DHT22;10764;50.850;2.904;2022-11-15T10:40:23;22.60;56.30
21214;DHT22;10764;50.850;2.904;2022-11-15T10:43:15;19.70;55.00
21214;DHT22;10764;50.850;2.904;2022-11-15T10:45:42;21.00;55.50
21214;DHT22;10764;50.850;2.904;2022-11-15T10:50:41;19.90;55.80
21214;DHT22;10764;50.850;2.904;2022-11-15T10:53:32;19.30;54.70
21214;DHT22;10764;50.850;2.904;2022-11-15T10:56:12;19.30;54.70
21214;DHT22;10764;50.850;2.904;2022-11-15T10:58:42;19.30;54.10
21214;DHT22;10764;50.850;2.904;2022-11-15T11:01:19;19.30;54.20
21214;DHT22;10764;50.850;2.904;2022-11-15T11:04:02;19.30;54.70
21214;DHT22;10764;50.850;2.904;2022-11-15T11:06:30;19.30;54.70
21214;DHT22;10764;50.850;2.904;2022-11-15T11:09:02;21.70;56.00
21214;DHT22;10764;50.850;2.904;2022-11-15T11:11:48;19.30;54.80
21214;DHT22;10764;50.850;2.904;2022-11-15T11:14:20;20.10;55.10
21214;DHT22;10764;50.850;2.904;2022-11-15T11:16:52;19.30;54.80
21214;DHT22;10764;50.850;2.904;2022-11-15T11:22:23;21.00;55.70
21214;DHT22;10764;50.850;2.904;2022-11-15T11:25:19;19.30;54.70
21214;DHT22;10764;50.850;2.904;2022-11-15T11:30:51;22.70;56.60
21214;DHT22;10764;50.850;2.904;2022-11-15T11:33:33;19.20;54.70
21214;DHT22;10764;50.850;2.904;2022-11-15T11:36:09;19.70;55.00
21214;DHT22;10764;50.850;2.904;2022-11-15T11:39:06;19.20;54.80
21214;DHT22;10764;50.850;2.904;2022-11-15T11:41:55;19.20;54.20
21214;DHT22;10764;50.850;2.904;2022-11-15T11:44:35;19.20;54.80
21214;DHT22;10764;50.850;2.904;2022-11-15T11:47:15;19.20;54.20
21214;DHT22;10764;50.850;2.904;2022-11-15T11:49:52;19.20;54.20
21214;DHT22;10764;50.850;2.904;2022-11-15T11:52:37;19.20;54.20
21214;DHT22;10764;50.850;2.904;2022-11-15T11:58:20;19.20;54.80
21214;DHT22;10764;50.850;2.904;2022-11-15T12:01:11;19.20;54.80
21214;DHT22;10764;50.850;2.904;2022-11-15T12:03:48;19.20;54.80
21214;DHT22;10764;50.850;2.904;2022-11-15T12:06:47;19.20;54.30
21214;DHT22;10764;50.850;2.904;2022-11-15T12:09:33;19.20;54.80
21214;DHT22;10764;50.850;2.904;2022-11-15T12:15:18;19.20;54.30
21214;DHT22;10764;50.850;2.904;2022-11-15T12:17:46;19.20;54.30
21214;DHT22;10764;50.850;2.904;2022-11-15T12:20:22;19.20;55.00
21214;DHT22;10764;50.850;2.904;2022-11-15T12:23:05;19.20;54.90
21214;DHT22;10764;50.850;2.904;2022-11-15T12:25:55;19.20;54.90
21214;DHT22;10764;50.850;2.904;2022-11-15T12:30:59;19.20;54.40
21214;DHT22;10764;50.850;2.904;2022-11-15T12:33:41;19.10;54.30
21214;DHT22;10764;50.850;2.904;2022-11-15T12:36:31;19.10;54.30
21214;DHT22;10764;50.850;2.904;2022-11-15T12:39:04;19.10;54.40
21214;DHT22;10764;50.850;2.904;2022-11-15T12:41:45;19.10;55.00
21214;DHT22;10764;50.850;2.904;2022-11-15T12:52:05;20.70;56.20
21214;DHT22;10764;50.850;2.904;2022-11-15T12:59:54;19.10;55.40
21214;DHT22;10764;50.850;2.904;2022-11-15T13:02:36;19.10;54.70
21214;DHT22;10764;50.850;2.904;2022-11-15T13:13:04;19.10;54.80
21214;DHT22;10764;50.850;2.904;2022-11-15T13:15:37;19.10;54.70
21214;DHT22;10764;50.850;2.904;2022-11-15T13:21:01;19.10;55.40
21214;DHT22;10764;50.850;2.904;2022-11-15T13:23:53;19.10;54.90
21214;DHT22;10764;50.850;2.904;2022-11-15T13:26:21;19.10;54.80
21214;DHT22;10764;50.850;2.904;2022-11-15T13:28:50;19.00;55.40
21214;DHT22;10764;50.850;2.904;2022-11-15T13:31:40;19.60;55.80
21214;DHT22;10764;50.850;2.904;2022-11-15T13:34:30;19.10;55.60
21214;DHT22;10764;50.850;2.904;2022-11-15T13:39:48;19.10;54.90
21214;DHT22;10764;50.850;2.904;2022-11-15T13:42:19;19.20;55.60
21214;DHT22;10764;50.850;2.904;2022-11-15T13:45:03;21.60;56.80
21214;DHT22;10764;50.850;2.904;2022-11-15T13:47:31;19.10;55.60
21214;DHT22;10764;50.850;2.904;2022-11-15T13:49:59;19.10;55.60
21214;DHT22;10764;50.850;2.904;2022-11-15T13:52:30;21.60;56.80
21214;DHT22;10764;50.850;2.904;2022-11-15T13:55:05;19.10;55.60
21214;DHT22;10764;50.850;2.904;2022-11-15T13:57:56;19.10;55.60
21214;DHT22;10764;50.850;2.904;2022-11-15T14:00:44;19.10;55.60
21214;DHT22;10764;50.850;2.904;2022-11-15T14:03:26;21.00;56.60
21214;DHT22;10764;50.850;2.904;2022-11-15T14:06:11;19.30;55.80
21214;DHT22;10764;50.850;2.904;2022-11-15T14:11:26;19.10;55.80
21214;DHT22;10764;50.850;2.904;2022-11-15T14:14:13;19.10;55.10
21214;DHT22;10764;50.850;2.904;2022-11-15T14:16:46;19.10;55.70
21214;DHT22;10764;50.850;2.904;2022-11-15T14:19:34;20.50;56.40
21214;DHT22;10764;50.850;2.904;2022-11-15T14:24:38;19.10;55.70
21214;DHT22;10764;50.850;2.904;2022-11-15T14:27:24;19.10;55.90
21214;DHT22;10764;50.850;2.904;2022-11-15T14:29:52;19.10;55.80
21214;DHT22;10764;50.850;2.904;2022-11-15T14:32:21;19.40;56.00
21214;DHT22;10764;50.850;2.904;2022-11-15T14:34:53;21.70;57.10
21214;DHT22;10764;50.850;2.904;2022-11-15T14:37:30;19.80;56.10
21214;DHT22;10764;50.850;2.904;2022-11-15T14:40:05;19.00;55.80
21214;DHT22;10764;50.850;2.904;2022-11-15T14:42:32;19.00;55.80
21214;DHT22;10764;50.850;2.904;2022-11-15T14:45:00;19.10;56.10
21214;DHT22;10764;50.850;2.904;2022-11-15T14:47:27;19.10;56.00
21214;DHT22;10764;50.850;2.904;2022-11-15T14:49:53;21.20;57.10
21214;DHT22;10764;50.850;2.904;2022-11-15T14:52:26;19.70;56.40
21214;DHT22;10764;50.850;2.904;2022-11-15T14:54:59;19.50;56.10
21214;DHT22;10764;50.850;2.904;2022-11-15T14:57:27;19.20;56.00
21214;DHT22;10764;50.850;2.904;2022-11-15T14:59:54;21.70;57.40
21214;DHT22;10764;50.850;2.904;2022-11-15T15:02:26;21.60;57.50
21214;DHT22;10764;50.850;2.904;2022-11-15T15:09:49;19.00;55.40
21214;DHT22;10764;50.850;2.904;2022-11-15T15:12:18;19.10;55.40
21214;DHT22;10764;50.850;2.904;2022-11-15T15:14:46;19.00;55.40
21214;DHT22;10764;50.850;2.904;2022-11-15T15:17:14;19.00;55.40
21214;DHT22;10764;50.850;2.904;2022-11-15T15:19:41;19.00;55.50
21214;DHT22;10764;50.850;2.904;2022-11-15T15:22:15;19.00;55.50
21214;DHT22;10764;50.850;2.904;2022-11-15T15:24:46;21.90;57.50
21214;DHT22;10764;50.850;2.904;2022-11-15T15:27:14;19.10;56.20
21214;DHT22;10764;50.850;2.904;2022-11-15T15:29:41;19.10;56.30
21214;DHT22;10764;50.850;2.904;2022-11-15T15:32:09;19.00;55.60
21214;DHT22;10764;50.850;2.904;2022-11-15T15:34:37;19.00;55.60
21214;DHT22;10764;50.850;2.904;2022-11-15T15:39:41;19.00;55.70
21214;DHT22;10764;50.850;2.904;2022-11-15T15:42:07;19.00;55.70
21214;DHT22;10764;50.850;2.904;2022-11-15T15:44:34;18.90;55.70
21214;DHT22;10764;50.850;2.904;2022-11-15T15:47:01;19.50;57.00
21214;DHT22;10764;50.850;2.904;2022-11-15T15:49:28;19.90;57.10
21214;DHT22;10764;50.850;2.904;2022-11-15T15:51:55;22.50;58.40
21214;DHT22;10764;50.850;2.904;2022-11-15T15:54:22;21.70;58.10
21214;DHT22;10764;50.850;2.904;2022-11-15T15:56:49;18.90;56.90
21214;DHT22;10764;50.850;2.904;2022-11-15T16:01:50;18.90;56.20
21214;DHT22;10764;50.850;2.904;2022-11-15T16:04:17;18.90;56.30
21214;DHT22;10764;50.850;2.904;2022-11-15T16:09:13;18.90;56.40
21214;DHT22;10764;50.850;2.904;2022-11-15T16:11:45;20.00;57.60
21214;DHT22;10764;50.850;2.904;2022-11-15T16:14:12;18.90;56.50
21214;DHT22;10764;50.850;2.904;2022-11-15T16:16:39;18.90;56.50
21214;DHT22;10764;50.850;2.904;2022-11-15T16:19:06;18.90;56.50
21214;DHT22;10764;50.850;2.904;2022-11-15T16:21:33;18.90;56.60
21214;DHT22;10764;50.850;2.904;2022-11-15T16:23:59;18.90;56.60
21214;DHT22;10764;50.850;2.904;2022-11-15T16:26:28;18.90;56.60
21214;DHT22;10764;50.850;2.904;2022-11-15T16:28:57;21.40;58.50
21214;DHT22;10764;50.850;2.904;2022-11-15T16:31:24;21.00;58.50
21214;DHT22;10764;50.850;2.904;2022-11-15T16:33:51;22.70;59.30
21214;DHT22;10764;50.850;2.904;2022-11-15T16:36:21;21.20;58.60
21214;DHT22;10764;50.850;2.904;2022-11-15T16:38:55;19.70;57.80
21214;DHT22;10764;50.850;2.904;2022-11-15T16:41:22;22.40;59.30
21214;DHT22;10764;50.850;2.904;2022-11-15T16:43:49;18.90;57.60
21214;DHT22;10764;50.850;2.904;2022-11-15T16:46:23;22.70;59.40
21214;DHT22;10764;50.850;2.904;2022-11-15T16:51:19;18.90;56.90
21214;DHT22;10764;50.850;2.904;2022-11-15T16:53:46;18.90;57.60
21214;DHT22;10764;50.850;2.904;2022-11-15T16:56:28;19.60;57.90
21214;DHT22;10764;50.850;2.904;2022-11-15T16:58:57;22.20;59.20
21214;DHT22;10764;50.850;2.904;2022-11-15T17:01:26;21.80;59.00
21214;DHT22;10764;50.850;2.904;2022-11-15T17:03:54;19.40;57.90
21214;DHT22;10764;50.850;2.904;2022-11-15T17:06:22;18.80;57.80
21214;DHT22;10764;50.850;2.904;2022-11-15T17:08:49;21.30;58.90
21214;DHT22;10764;50.850;2.904;2022-11-15T17:11:19;19.30;58.10
21214;DHT22;10764;50.850;2.904;2022-11-15T17:13:46;19.50;57.90
21214;DHT22;10764;50.850;2.904;2022-11-15T17:16:16;19.90;58.20
21214;DHT22;10764;50.850;2.904;2022-11-15T17:18:43;21.20;58.80
21214;DHT22;10764;50.850;2.904;2022-11-15T17:21:17;18.50;57.50
21214;DHT22;10764;50.850;2.904;2022-11-15T17:23:45;18.80;57.60
21214;DHT22;10764;50.850;2.904;2022-11-15T17:26:13;18.90;57.90
21214;DHT22;10764;50.850;2.904;2022-11-15T17:28:55;18.90;57.70
21214;DHT22;10764;50.850;2.904;2022-11-15T17:31:27;19.60;58.20
21214;DHT22;10764;50.850;2.904;2022-11-15T17:33:56;18.80;57.90
21214;DHT22;10764;50.850;2.904;2022-11-15T17:36:23;19.00;57.90
21214;DHT22;10764;50.850;2.904;2022-11-15T17:38:49;18.90;58.10
21214;DHT22;10764;50.850;2.904;2022-11-15T17:41:25;18.80;57.90
21214;DHT22;10764;50.850;2.904;2022-11-15T17:43:51;18.90;57.90
21214;DHT22;10764;50.850;2.904;2022-11-15T17:46:19;20.00;58.60
21214;DHT22;10764;50.850;2.904;2022-11-15T17:48:47;22.00;59.50
21214;DHT22;10764;50.850;2.904;2022-11-15T17:51:15;18.30;57.60
21214;DHT22;10764;50.850;2.904;2022-11-15T17:53:46;21.10;59.00
21214;DHT22;10764;50.850;2.904;2022-11-15T17:56:17;18.80;58.00
21214;DHT22;10764;50.850;2.904;2022-11-15T17:58:55;20.00;58.50
21214;DHT22;10764;50.850;2.904;2022-11-15T18:01:25;19.50;58.20
21214;DHT22;10764;50.850;2.904;2022-11-15T18:03:53;18.80;57.30
21214;DHT22;10764;50.850;2.904;2022-11-15T18:06:22;18.90;58.00
21214;DHT22;10764;50.850;2.904;2022-11-15T18:08:50;19.00;58.00
21214;DHT22;10764;50.850;2.904;2022-11-15T18:11:19;20.80;58.90
21214;DHT22;10764;50.850;2.904;2022-11-15T18:13:49;18.80;58.00
21214;DHT22;10764;50.850;2.904;2022-11-15T18:16:20;18.90;58.10
21214;DHT22;10764;50.850;2.904;2022-11-15T18:18:48;18.60;57.90
21214;DHT22;10764;50.850;2.904;2022-11-15T18:21:23;20.40;59.00
21214;DHT22;10764;50.850;2.904;2022-11-15T18:23:57;18.80;58.10
21214;DHT22;10764;50.850;2.904;2022-11-15T18:26:27;18.80;58.10
21214;DHT22;10764;50.850;2.904;2022-11-15T18:28:57;18.80;58.20
21214;DHT22;10764;50.850;2.904;2022-11-15T18:31:29;18.80;58.20
21214;DHT22;10764;50.850;2.904;2022-11-15T18:33:58;22.00;59.80
21214;DHT22;10764;50.850;2.904;2022-11-15T18:36:28;18.80;58.20
21214;DHT22;10764;50.850;2.904;2022-11-15T18:38:57;19.10;59.00
21214;DHT22;10764;50.850;2.904;2022-11-15T18:41:24;18.80;57.70
21214;DHT22;10764;50.850;2.904;2022-11-15T18:43:58;18.90;57.60
21214;DHT22;10764;50.850;2.904;2022-11-15T18:46:27;19.90;58.70
21214;DHT22;10764;50.850;2.904;2022-11-15T18:48:56;18.90;58.40
21214;DHT22;10764;50.850;2.904;2022-11-15T18:51:25;19.80;58.90
21214;DHT22;10764;50.850;2.904;2022-11-15T18:53:53;18.80;58.40
21214;DHT22;10764;50.850;2.904;2022-11-15T18:56:22;22.00;59.90
21214;DHT22;10764;50.850;2.904;2022-11-15T18:58:50;22.70;60.40
21214;DHT22;10764;50.850;2.904;2022-11-15T19:01:18;21.90;59.80
21214;DHT22;10764;50.850;2.904;2022-11-15T19:03:48;20.60;59.20
21214;DHT22;10764;50.850;2.904;2022-11-15T19:06:20;19.70;58.70
21214;DHT22;10764;50.850;2.904;2022-11-15T19:08:48;19.30;58.50
21214;DHT22;10764;50.850;2.904;2022-11-15T19:11:18;20.70;59.20
21214;DHT22;10764;50.850;2.904;2022-11-15T19:13:47;21.50;59.50
21214;DHT22;10764;50.850;2.904;2022-11-15T19:16:18;20.00;58.80
21214;DHT22;10764;50.850;2.904;2022-11-15T19:18:44;18.90;58.40
21214;DHT22;10764;50.850;2.904;2022-11-15T19:21:12;18.90;57.60
21214;DHT22;10764;50.850;2.904;2022-11-15T19:23:42;19.10;58.40
21214;DHT22;10764;50.850;2.904;2022-11-15T19:26:13;19.10;58.40
21214;DHT22;10764;50.850;2.904;2022-11-15T19:28:42;19.60;58.50
21214;DHT22;10764;50.850;2.904;2022-11-15T19:31:14;21.70;59.60
21214;DHT22;10764;50.850;2.904;2022-11-15T19:33:42;18.90;58.20
21214;DHT22;10764;50.850;2.904;2022-11-15T19:38:41;18.50;58.00
21214;DHT22;10764;50.850;2.904;2022-11-15T19:41:16;22.60;60.10
21214;DHT22;10764;50.850;2.904;2022-11-15T19:43:44;20.00;58.70
21214;DHT22;10764;50.850;2.904;2022-11-15T19:46:14;20.30;58.90
21214;DHT22;10764;50.850;2.904;2022-11-15T19:48:41;18.90;58.30
21214;DHT22;10764;50.850;2.904;2022-11-15T19:51:27;22.70;60.10
21214;DHT22;10764;50.850;2.904;2022-11-15T19:53:58;21.00;59.10
21214;DHT22;10764;50.850;2.904;2022-11-15T19:56:26;18.90;58.10
21214;DHT22;10764;50.850;2.904;2022-11-15T19:58:54;18.90;57.50
21214;DHT22;10764;50.850;2.904;2022-11-15T20:01:24;20.30;58.80
21214;DHT22;10764;50.850;2.904;2022-11-15T20:03:53;19.00;58.10
21214;DHT22;10764;50.850;2.904;2022-11-15T20:06:23;19.60;58.50
21214;DHT22;10764;50.850;2.904;2022-11-15T20:08:50;19.50;58.50
21214;DHT22;10764;50.850;2.904;2022-11-15T20:11:17;18.90;58.20
21214;DHT22;10764;50.850;2.904;2022-11-15T20:13:44;18.90;57.50
21214;DHT22;10764;50.850;2.904;2022-11-15T20:16:15;18.90;58.20
21214;DHT22;10764;50.850;2.904;2022-11-15T20:18:42;21.40;59.30
21214;DHT22;10764;50.850;2.904;2022-11-15T20:21:09;18.60;58.10
21214;DHT22;10764;50.850;2.904;2022-11-15T20:23:36;19.50;58.50
21214;DHT22;10764;50.850;2.904;2022-11-15T20:26:06;20.70;59.00
21214;DHT22;10764;50.850;2.904;2022-11-15T20:28:36;18.60;58.00
21214;DHT22;10764;50.850;2.904;2022-11-15T20:31:04;19.30;58.30
21214;DHT22;10764;50.850;2.904;2022-11-15T20:33:31;18.90;58.10
21214;DHT22;10764;50.850;2.904;2022-11-15T20:36:05;18.90;59.00
21214;DHT22;10764;50.850;2.904;2022-11-15T20:38:33;19.00;58.10
21214;DHT22;10764;50.850;2.904;2022-11-15T20:41:00;19.30;58.40
21214;DHT22;10764;50.850;2.904;2022-11-15T20:43:27;19.10;58.30
21214;DHT22;10764;50.850;2.904;2022-11-15T20:45:54;19.90;59.40
21214;DHT22;10764;50.850;2.904;2022-11-15T20:48:21;18.60;57.90
21214;DHT22;10764;50.850;2.904;2022-11-15T20:50:48;19.70;58.60
21214;DHT22;10764;50.850;2.904;2022-11-15T20:53:17;19.70;58.60
21214;DHT22;10764;50.850;2.904;2022-11-15T20:55:47;18.90;57.50
21214;DHT22;10764;50.850;2.904;2022-11-15T20:58:15;21.70;59.50
21214;DHT22;10764;50.850;2.904;2022-11-15T21:00:43;20.20;58.70
21214;DHT22;10764;50.850;2.904;2022-11-15T21:03:12;18.90;57.50